createdAt,value
2023-05-16T00:01:57.919Z,17.89
2023-05-16T00:04:26.581Z,17.96
2023-05-16T00:06:53.384Z,17.85
2023-05-16T00:09:20.313Z,17.97
2023-05-16T00:11:48.477Z,17.49
2023-05-16T00:14:15.397Z,17.68
2023-05-16T00:16:42.310Z,17.94
2023-05-16T00:19:10.584Z,17.75
2023-05-16T00:21:37.336Z,17.66
2023-05-16T00:24:04.428Z,17.56
2023-05-16T00:26:31.214Z,17.59
2023-05-16T00:28:57.933Z,17.72
2023-05-16T00:31:24.675Z,17.25
2023-05-16T00:33:51.466Z,17.54
2023-05-16T00:36:18.086Z,17.49
2023-05-16T00:38:44.768Z,17.65
2023-05-16T00:41:11.519Z,17.28
2023-05-16T00:43:39.823Z,17.34
2023-05-16T00:46:06.599Z,17.28
2023-05-16T00:48:33.730Z,17.34
2023-05-16T00:51:01.462Z,17.48
2023-05-16T00:53:28.278Z,17.54
2023-05-16T00:55:56.640Z,17.59
2023-05-16T00:58:23.358Z,17.53
2023-05-16T01:00:49.990Z,17.66
2023-05-16T01:03:17.340Z,17.49
2023-05-16T01:05:44.275Z,17.44
2023-05-16T01:08:10.964Z,17.59
2023-05-16T01:10:44.431Z,17.30
2023-05-16T01:13:17.144Z,17.51
2023-05-16T01:15:47.087Z,17.35
2023-05-16T01:18:16.505Z,17.47
2023-05-16T01:21:04.103Z,16.90
2023-05-16T01:23:43.963Z,17.38
2023-05-16T01:26:22.686Z,17.29
2023-05-16T01:28:50.670Z,17.39
2023-05-16T01:31:17.550Z,17.42
2023-05-16T01:33:44.342Z,17.29
2023-05-16T01:36:23.399Z,17.18
2023-05-16T01:39:00.021Z,17.44
2023-05-16T01:41:52.829Z,17.31
2023-05-16T01:44:23.918Z,17.39
2023-05-16T01:46:55.425Z,17.28
2023-05-16T01:49:28.259Z,17.49
2023-05-16T01:51:59.213Z,17.41
2023-05-16T01:54:26.678Z,17.40
2023-05-16T01:56:54.319Z,17.33
2023-05-16T01:59:22.381Z,16.76
2023-05-16T02:01:49.460Z,15.82
2023-05-16T02:04:16.386Z,15.90
2023-05-16T02:06:43.768Z,15.71
2023-05-16T02:09:10.365Z,15.48
2023-05-16T02:11:37.080Z,16.22
2023-05-16T02:14:03.852Z,16.53
2023-05-16T02:16:31.748Z,16.63
2023-05-16T02:18:58.462Z,16.92
2023-05-16T02:21:25.777Z,17.09
2023-05-16T02:23:52.413Z,17.15
2023-05-16T02:26:19.117Z,16.88
2023-05-16T02:28:46.194Z,16.76
2023-05-16T02:31:12.908Z,16.78
2023-05-16T02:33:39.998Z,16.71
2023-05-16T02:36:06.929Z,16.27
2023-05-16T02:38:33.634Z,16.17
2023-05-16T02:41:00.527Z,16.83
2023-05-16T02:43:27.223Z,16.53
2023-05-16T02:45:53.889Z,16.96
2023-05-16T02:48:20.785Z,16.93
2023-05-16T02:50:47.560Z,16.82
2023-05-16T02:53:14.296Z,16.89
2023-05-16T02:55:41.110Z,17.19
2023-05-16T02:58:08.549Z,16.88
2023-05-16T03:00:35.175Z,15.70
2023-05-16T03:03:02.252Z,16.26
2023-05-16T03:05:29.200Z,15.47
2023-05-16T03:07:56.184Z,15.08
2023-05-16T03:10:22.916Z,15.75
2023-05-16T03:12:49.570Z,16.32
2023-05-16T03:15:17.217Z,16.62
2023-05-16T03:17:43.818Z,15.86
2023-05-16T03:20:11.627Z,16.33
2023-05-16T03:22:38.282Z,15.94
2023-05-16T03:25:05.339Z,16.15
2023-05-16T03:27:32.134Z,16.25
2023-05-16T03:29:58.839Z,16.29
2023-05-16T03:32:25.604Z,16.57
2023-05-16T03:34:52.292Z,16.40
2023-05-16T03:37:18.983Z,16.02
2023-05-16T03:39:45.682Z,16.35
2023-05-16T03:42:12.552Z,16.56
2023-05-16T03:44:39.811Z,16.78
2023-05-16T03:47:06.584Z,16.98
2023-05-16T03:49:33.298Z,17.02
2023-05-16T03:51:59.916Z,17.11
2023-05-16T03:54:26.675Z,17.14
2023-05-16T03:56:53.252Z,17.08
2023-05-16T03:59:19.989Z,17.22
2023-05-16T04:01:47.078Z,17.28
2023-05-16T04:04:14.349Z,16.71
2023-05-16T04:06:41.111Z,16.83
2023-05-16T04:09:07.855Z,17.09
2023-05-16T04:11:34.520Z,17.07
2023-05-16T04:14:01.936Z,16.29
2023-05-16T04:16:28.893Z,16.17
2023-05-16T04:18:56.537Z,16.46
2023-05-16T04:21:23.348Z,16.91
2023-05-16T04:23:49.977Z,16.77
2023-05-16T04:26:16.642Z,15.58
2023-05-16T04:28:43.392Z,14.96
2023-05-16T04:31:10.558Z,15.94
2023-05-16T04:33:37.485Z,15.15
2023-05-16T04:36:06.198Z,15.59
2023-05-16T04:38:32.953Z,16.28
2023-05-16T04:40:59.569Z,16.52
2023-05-16T04:43:26.483Z,16.68
2023-05-16T04:45:54.234Z,16.54
2023-05-16T04:48:20.887Z,16.73
2023-05-16T04:50:47.611Z,16.84
2023-05-16T04:53:15.264Z,17.05
2023-05-16T04:55:41.981Z,16.86
2023-05-16T04:58:08.582Z,17.08
2023-05-16T05:00:35.207Z,17.34
2023-05-16T05:03:02.013Z,17.36
2023-05-16T05:05:29.164Z,17.40
2023-05-16T05:07:56.087Z,17.30
2023-05-16T05:10:22.690Z,17.47
2023-05-16T05:12:49.320Z,17.57
2023-05-16T05:15:15.997Z,17.63
2023-05-16T05:17:42.878Z,16.94
2023-05-16T05:20:10.669Z,17.40
2023-05-16T05:22:37.336Z,17.43
2023-05-16T05:25:04.370Z,17.46
2023-05-16T05:27:31.553Z,17.55
2023-05-16T05:29:58.163Z,17.66
2023-05-16T05:32:24.958Z,17.60
2023-05-16T05:34:52.708Z,17.39
2023-05-16T05:37:19.422Z,17.06
2023-05-16T05:39:46.241Z,17.29
2023-05-16T05:42:12.959Z,17.00
2023-05-16T05:44:39.651Z,16.89
2023-05-16T05:47:06.584Z,16.89
2023-05-16T05:49:33.787Z,16.92
2023-05-16T05:52:00.451Z,16.76
2023-05-16T05:54:27.212Z,16.80
2023-05-16T05:56:53.881Z,16.89
2023-05-16T05:59:20.535Z,17.15
2023-05-16T06:01:47.309Z,16.80
2023-05-16T06:04:14.008Z,16.87
2023-05-16T06:06:40.824Z,16.36
2023-05-16T06:09:07.507Z,16.41
2023-05-16T06:11:34.238Z,16.02
2023-05-16T06:14:00.990Z,15.58
2023-05-16T06:16:28.007Z,15.41
2023-05-16T06:18:54.726Z,15.57
2023-05-16T06:21:21.548Z,14.73
2023-05-16T06:23:48.209Z,15.07
2023-05-16T06:26:14.952Z,15.08
2023-05-16T06:28:41.767Z,14.90
2023-05-16T06:31:08.652Z,15.20
2023-05-16T06:33:35.356Z,14.92
2023-05-16T06:36:02.027Z,15.59
2023-05-16T06:38:28.709Z,15.37
2023-05-16T06:40:55.562Z,15.05
2023-05-16T06:43:22.335Z,15.29
2023-05-16T06:45:49.015Z,15.14
2023-05-16T06:48:16.336Z,15.04
2023-05-16T06:50:43.111Z,14.73
2023-05-16T06:53:12.386Z,15.27
2023-05-16T06:55:39.840Z,15.02
2023-05-16T06:58:06.664Z,15.51
2023-05-16T07:00:35.589Z,15.20
2023-05-16T07:03:05.591Z,15.21
2023-05-16T07:05:35.434Z,15.29
2023-05-16T07:08:02.288Z,15.63
2023-05-16T07:10:29.350Z,15.83
2023-05-16T07:12:57.038Z,16.02
2023-05-16T07:15:23.889Z,16.50
2023-05-16T07:17:51.163Z,16.42
2023-05-16T07:20:17.981Z,16.55
2023-05-16T07:22:44.684Z,16.45
2023-05-16T07:25:15.668Z,16.38
2023-05-16T07:27:45.138Z,16.29
2023-05-16T07:30:13.261Z,16.22
2023-05-16T07:32:40.664Z,15.63
2023-05-16T07:35:08.003Z,15.39
2023-05-16T07:37:34.867Z,15.22
2023-05-16T07:40:01.676Z,14.89
2023-05-16T07:42:28.363Z,15.21
2023-05-16T07:44:55.032Z,14.90
2023-05-16T07:47:21.742Z,14.68
2023-05-16T07:49:49.320Z,15.06
2023-05-16T07:52:16.082Z,15.75
2023-05-16T07:54:43.795Z,16.16
2023-05-16T07:57:10.850Z,16.28
2023-05-16T07:59:37.786Z,16.35
2023-05-16T08:02:04.667Z,16.61
2023-05-16T08:04:31.396Z,16.52
2023-05-16T08:06:58.307Z,16.58
2023-05-16T08:09:25.056Z,16.68
2023-05-16T08:11:52.042Z,16.87
2023-05-16T08:14:19.161Z,16.68
2023-05-16T08:16:45.961Z,16.84
2023-05-16T08:19:12.814Z,16.84
2023-05-16T08:21:39.675Z,16.58
2023-05-16T08:24:06.863Z,16.26
2023-05-16T08:26:33.738Z,16.05
2023-05-16T08:29:00.473Z,16.04
2023-05-16T08:31:27.264Z,15.44
2023-05-16T08:33:54.114Z,14.56
2023-05-16T08:36:21.202Z,14.53
2023-05-16T08:38:49.808Z,14.84
2023-05-16T08:41:16.810Z,15.36
2023-05-16T08:43:43.605Z,15.17
2023-05-16T08:46:11.063Z,14.70
2023-05-16T08:48:38.963Z,15.26
2023-05-16T08:51:08.202Z,15.49
2023-05-16T08:53:41.297Z,15.99
2023-05-16T08:56:08.814Z,16.10
2023-05-16T08:58:35.954Z,16.11
2023-05-16T09:01:07.360Z,16.35
2023-05-16T09:03:35.613Z,16.46
2023-05-16T09:06:03.138Z,16.50
2023-05-16T09:08:29.942Z,16.38
2023-05-16T09:10:56.668Z,16.33
2023-05-16T09:13:24.252Z,15.96
2023-05-16T09:16:09.918Z,16.29
2023-05-16T09:18:38.038Z,16.22
2023-05-16T09:21:05.587Z,15.30
2023-05-16T09:23:35.117Z,15.60
2023-05-16T09:26:04.460Z,14.96
2023-05-16T09:28:32.014Z,14.30
2023-05-16T09:31:00.218Z,15.30
2023-05-16T09:33:27.654Z,15.43
2023-05-16T09:35:58.535Z,15.19
2023-05-16T09:38:26.737Z,15.58
2023-05-16T09:40:53.996Z,15.77
2023-05-16T09:43:23.194Z,15.14
2023-05-16T09:45:49.880Z,16.03
2023-05-16T09:48:18.367Z,16.12
2023-05-16T09:50:55.196Z,14.89
2023-05-16T09:53:26.915Z,15.65
2023-05-16T09:56:09.443Z,16.02
2023-05-16T09:58:37.028Z,15.82
2023-05-16T10:01:04.014Z,16.28
2023-05-16T10:03:30.932Z,16.34
2023-05-16T10:05:57.863Z,16.38
2023-05-16T10:08:28.319Z,16.26
2023-05-16T10:10:56.088Z,16.31
2023-05-16T10:13:23.817Z,15.92
2023-05-16T10:15:52.088Z,15.84
2023-05-16T10:18:19.878Z,15.92
2023-05-16T10:20:49.391Z,16.24
2023-05-16T10:23:20.113Z,15.83
2023-05-16T10:25:48.138Z,15.75
2023-05-16T10:28:16.572Z,15.55
2023-05-16T10:30:44.790Z,15.87
2023-05-16T10:33:15.955Z,15.22
2023-05-16T10:35:43.127Z,15.67
2023-05-16T10:38:12.194Z,14.87
2023-05-16T10:40:39.662Z,15.41
2023-05-16T10:43:07.753Z,15.15
2023-05-16T10:45:35.235Z,15.18
2023-05-16T10:48:06.741Z,14.79
2023-05-16T10:50:40.772Z,14.72
2023-05-16T10:53:13.449Z,15.19
2023-05-16T10:55:40.807Z,14.99
2023-05-16T10:58:08.306Z,14.87
2023-05-16T11:00:35.457Z,14.69
2023-05-16T11:03:06.797Z,14.88
2023-05-16T11:05:34.565Z,14.74
2023-05-16T11:08:06.691Z,14.93
2023-05-16T11:10:33.615Z,14.88
2023-05-16T11:13:07.601Z,14.82
2023-05-16T11:15:34.925Z,14.84
2023-05-16T11:18:08.844Z,14.57
2023-05-16T11:20:40.079Z,14.64
2023-05-16T11:23:16.902Z,14.60
2023-05-16T11:25:46.183Z,15.06
2023-05-16T11:28:13.999Z,14.81
2023-05-16T11:30:44.910Z,14.71
2023-05-16T11:33:13.233Z,14.63
2023-05-16T11:35:40.134Z,14.23
2023-05-16T11:38:06.816Z,14.39
2023-05-16T11:40:35.862Z,13.91
2023-05-16T11:43:07.093Z,13.90
2023-05-16T11:45:34.560Z,14.12
2023-05-16T11:48:04.851Z,14.14
2023-05-16T11:50:32.602Z,14.26
2023-05-16T11:52:59.775Z,14.41
2023-05-16T11:55:41.324Z,14.80
2023-05-16T11:58:09.609Z,14.47
2023-05-16T12:00:36.701Z,14.60
2023-05-16T12:03:08.365Z,14.32
2023-05-16T12:05:35.969Z,14.37
2023-05-16T12:08:05.298Z,14.71
2023-05-16T12:10:34.911Z,14.91
2023-05-16T12:13:02.453Z,14.98
2023-05-16T12:15:29.684Z,14.79
2023-05-16T12:17:57.270Z,14.77
2023-05-16T12:20:26.248Z,15.47
2023-05-16T12:22:53.025Z,14.94
2023-05-16T12:25:30.247Z,14.87
2023-05-16T12:27:58.724Z,15.38
2023-05-16T12:30:26.606Z,15.32
2023-05-16T12:32:56.057Z,15.52
2023-05-16T12:35:23.223Z,15.76
2023-05-16T12:37:50.727Z,15.61
2023-05-16T12:40:17.714Z,16.04
2023-05-16T12:42:45.461Z,16.34
2023-05-16T12:45:17.169Z,15.99
2023-05-16T12:47:44.147Z,15.66
2023-05-16T12:50:12.945Z,16.29
2023-05-16T12:52:46.646Z,15.90
2023-05-16T12:55:13.403Z,15.96
2023-05-16T12:57:42.025Z,15.77
2023-05-16T13:00:08.971Z,16.36
2023-05-16T13:02:35.645Z,15.90
2023-05-16T13:05:02.455Z,15.72
2023-05-16T13:07:29.141Z,16.14
2023-05-16T13:09:55.909Z,16.29
2023-05-16T13:12:27.069Z,15.72
2023-05-16T13:14:54.887Z,15.99
2023-05-16T13:17:21.577Z,15.92
2023-05-16T13:19:49.043Z,15.68
2023-05-16T13:22:16.021Z,15.74
2023-05-16T13:24:42.733Z,15.82
2023-05-16T13:27:09.586Z,15.99
2023-05-16T13:29:36.210Z,16.08
2023-05-16T13:32:03.134Z,16.09
2023-05-16T13:34:30.503Z,15.59
2023-05-16T13:36:57.196Z,15.27
2023-05-16T13:39:24.043Z,15.25
2023-05-16T13:41:51.180Z,15.45
2023-05-16T13:44:18.332Z,15.79
2023-05-16T13:46:45.277Z,15.24
2023-05-16T13:49:12.011Z,15.09
2023-05-16T13:51:38.712Z,15.39
2023-05-16T13:54:05.635Z,15.07
2023-05-16T13:56:32.311Z,15.21
2023-05-16T13:59:05.850Z,15.50
2023-05-16T14:01:34.394Z,15.86
2023-05-16T14:04:01.199Z,15.95
2023-05-16T14:06:28.540Z,16.08
2023-05-16T14:08:55.245Z,15.93
2023-05-16T14:11:28.824Z,15.77
2023-05-16T14:13:56.634Z,15.83
2023-05-16T14:16:23.368Z,15.48
2023-05-16T14:18:50.141Z,15.69
2023-05-16T14:21:16.884Z,15.73
2023-05-16T14:23:43.538Z,15.52
2023-05-16T14:26:10.211Z,15.69
2023-05-16T14:28:37.201Z,15.81
2023-05-16T14:31:03.943Z,15.17
2023-05-16T14:33:32.539Z,15.74
2023-05-16T14:35:59.237Z,15.52
2023-05-16T14:38:26.059Z,15.05
2023-05-16T14:40:52.783Z,15.53
2023-05-16T14:43:19.491Z,15.26
2023-05-16T14:45:46.197Z,15.75
2023-05-16T14:48:13.075Z,15.39
2023-05-16T14:50:39.746Z,15.26
2023-05-16T14:53:06.515Z,15.43
2023-05-16T14:55:33.253Z,15.27
2023-05-16T14:58:00.336Z,15.26
2023-05-16T15:00:27.771Z,15.12
2023-05-16T15:02:54.758Z,15.09
2023-05-16T15:05:21.600Z,15.16
2023-05-16T15:07:48.678Z,14.99
2023-05-16T15:10:15.469Z,14.92
2023-05-16T15:12:43.452Z,15.11
2023-05-16T15:15:15.680Z,15.01
2023-05-16T15:17:43.361Z,15.05
2023-05-16T15:20:11.202Z,14.75
2023-05-16T15:22:39.268Z,14.96
2023-05-16T15:25:06.266Z,14.79
2023-05-16T15:27:33.033Z,14.94
2023-05-16T15:30:00.878Z,14.97
2023-05-16T15:32:27.805Z,15.09
2023-05-16T15:34:54.548Z,15.13
2023-05-16T15:37:21.344Z,15.24
2023-05-16T15:39:48.174Z,15.16
2023-05-16T15:42:15.119Z,15.61
2023-05-16T15:44:41.803Z,15.84
2023-05-16T15:47:09.380Z,15.57
2023-05-16T15:49:36.053Z,16.04
2023-05-16T15:52:02.752Z,15.88
2023-05-16T15:54:29.876Z,15.99
2023-05-16T15:56:56.803Z,15.76
2023-05-16T15:59:23.499Z,15.59
2023-05-16T16:01:50.220Z,15.22
2023-05-16T16:04:19.362Z,14.96
2023-05-16T16:06:47.100Z,15.07
2023-05-16T16:09:13.755Z,15.65
2023-05-16T16:11:40.473Z,15.30
2023-05-16T16:14:08.798Z,15.18
2023-05-16T16:16:37.416Z,15.36
2023-05-16T16:19:04.299Z,15.00
2023-05-16T16:21:31.485Z,15.19
2023-05-16T16:23:58.260Z,15.44
2023-05-16T16:26:25.963Z,16.00
2023-05-16T16:28:52.722Z,15.69
2023-05-16T16:31:19.471Z,15.54
2023-05-16T16:33:49.300Z,15.63
2023-05-16T16:36:16.518Z,15.92
2023-05-16T16:38:43.154Z,15.92
2023-05-16T16:41:10.313Z,16.20
2023-05-16T16:43:39.918Z,16.26
2023-05-16T16:46:09.825Z,16.11
2023-05-16T16:48:36.660Z,16.46
2023-05-16T16:51:03.441Z,16.42
2023-05-16T16:53:30.227Z,16.73
2023-05-16T16:55:56.970Z,16.35
2023-05-16T16:58:23.753Z,16.51
2023-05-16T17:00:50.454Z,16.63
2023-05-16T17:03:17.369Z,16.87
2023-05-16T17:05:45.158Z,17.09
2023-05-16T17:08:12.342Z,17.06
2023-05-16T17:10:39.492Z,17.04
2023-05-16T17:13:10.539Z,17.38
2023-05-16T17:15:37.988Z,17.41
2023-05-16T17:18:07.732Z,17.53
2023-05-16T17:20:34.958Z,17.40
2023-05-16T17:23:01.827Z,17.67
2023-05-16T17:25:29.287Z,17.34
2023-05-16T17:27:56.407Z,17.39
2023-05-16T17:30:23.776Z,17.61
2023-05-16T17:32:50.526Z,17.68
2023-05-16T17:35:17.455Z,17.71
2023-05-16T17:37:44.189Z,17.61
2023-05-16T17:40:16.530Z,17.21
2023-05-16T17:42:44.010Z,17.40
2023-05-16T17:45:11.465Z,17.20
2023-05-16T17:47:38.188Z,16.86
2023-05-16T17:50:05.567Z,17.13
2023-05-16T17:52:34.303Z,17.40
2023-05-16T17:55:01.135Z,17.51
2023-05-16T17:57:28.158Z,17.61
2023-05-16T17:59:55.953Z,17.71
2023-05-16T18:02:22.742Z,17.68
2023-05-16T18:04:49.476Z,17.77
2023-05-16T18:07:16.178Z,17.46
2023-05-16T18:09:42.900Z,17.67
2023-05-16T18:12:09.735Z,17.56
2023-05-16T18:14:36.460Z,17.51
2023-05-16T18:17:03.868Z,17.41
2023-05-16T18:19:30.901Z,17.54
2023-05-16T18:21:59.776Z,16.88
2023-05-16T18:24:26.440Z,15.82
2023-05-16T18:26:53.147Z,15.34
2023-05-16T18:29:19.885Z,16.16
2023-05-16T18:31:46.600Z,16.50
2023-05-16T18:34:13.366Z,16.63
2023-05-16T18:36:40.043Z,16.57
2023-05-16T18:39:07.255Z,16.36
2023-05-16T18:41:34.159Z,16.72
2023-05-16T18:44:00.916Z,16.87
2023-05-16T18:46:27.603Z,16.87
2023-05-16T18:48:57.878Z,16.80
2023-05-16T18:51:24.949Z,17.03
2023-05-16T18:53:51.786Z,16.15
2023-05-16T18:56:18.458Z,14.80
2023-05-16T18:58:45.233Z,15.53
2023-05-16T19:01:12.003Z,15.92
2023-05-16T19:03:38.867Z,15.74
2023-05-16T19:06:05.589Z,15.86
2023-05-16T19:08:46.461Z,16.07
2023-05-16T19:11:14.598Z,15.93
2023-05-16T19:13:41.318Z,16.16
2023-05-16T19:16:08.136Z,15.70
2023-05-16T19:18:35.532Z,15.59
2023-05-16T19:21:02.593Z,15.25
2023-05-16T19:23:29.501Z,14.90
2023-05-16T19:25:56.511Z,15.70
2023-05-16T19:28:24.725Z,15.71
2023-05-16T19:30:51.556Z,15.99
2023-05-16T19:33:18.181Z,16.30
2023-05-16T19:35:44.812Z,16.18
2023-05-16T19:38:11.429Z,16.32
2023-05-16T19:40:38.237Z,16.52
2023-05-16T19:43:05.028Z,16.69
2023-05-16T19:45:31.718Z,16.79
2023-05-16T19:47:59.010Z,16.78
2023-05-16T19:50:25.800Z,16.74
2023-05-16T19:52:52.473Z,16.95
2023-05-16T19:55:19.221Z,16.93
2023-05-16T19:57:46.168Z,17.10
2023-05-16T20:00:13.291Z,17.11
2023-05-16T20:02:40.225Z,16.93
2023-05-16T20:05:07.282Z,16.84
2023-05-16T20:07:34.089Z,16.94
2023-05-16T20:10:01.064Z,17.03
2023-05-16T20:12:27.759Z,16.84
2023-05-16T20:14:54.441Z,16.99
2023-05-16T20:17:21.174Z,16.84
2023-05-16T20:19:48.070Z,17.00
2023-05-16T20:22:14.754Z,16.85
2023-05-16T20:24:41.402Z,16.60
2023-05-16T20:27:08.110Z,16.37
2023-05-16T20:29:34.786Z,16.60
2023-05-16T20:32:03.429Z,16.78
2023-05-16T20:34:31.646Z,16.54
2023-05-16T20:36:58.681Z,16.64
2023-05-16T20:39:29.181Z,16.57
2023-05-16T20:41:55.963Z,16.64
2023-05-16T20:44:22.652Z,16.43
2023-05-16T20:46:49.386Z,16.02
2023-05-16T20:49:16.179Z,16.29
2023-05-16T20:51:43.034Z,16.38
2023-05-16T20:54:10.824Z,16.51
2023-05-16T20:56:37.464Z,16.63
2023-05-16T20:59:04.334Z,16.62
2023-05-16T21:01:31.009Z,16.49
2023-05-16T21:03:57.803Z,16.28
2023-05-16T21:06:24.534Z,16.52
2023-05-16T21:08:51.192Z,16.05
2023-05-16T21:11:17.907Z,16.35
2023-05-16T21:13:44.526Z,16.51
2023-05-16T21:16:12.762Z,16.36
2023-05-16T21:18:39.642Z,16.26
2023-05-16T21:21:06.381Z,16.29
2023-05-16T21:23:33.082Z,16.45
2023-05-16T21:25:59.774Z,16.64
2023-05-16T21:28:26.448Z,16.49
2023-05-16T21:30:53.401Z,16.33
2023-05-16T21:33:20.178Z,16.38
2023-05-16T21:35:47.370Z,16.62
2023-05-16T21:38:14.046Z,16.16
2023-05-16T21:40:40.724Z,16.44
2023-05-16T21:43:07.345Z,16.09
2023-05-16T21:45:33.989Z,16.20
2023-05-16T21:48:00.827Z,16.43
2023-05-16T21:50:27.661Z,16.16
2023-05-16T21:52:54.325Z,16.31
2023-05-16T21:55:20.965Z,15.85
2023-05-16T21:57:47.930Z,15.74
2023-05-16T22:00:15.025Z,15.71
2023-05-16T22:02:41.742Z,15.88
2023-05-16T22:05:08.949Z,15.86
2023-05-16T22:07:36.151Z,16.08
2023-05-16T22:10:03.381Z,15.72
2023-05-16T22:12:30.024Z,15.83
2023-05-16T22:14:56.984Z,16.15
2023-05-16T22:17:23.711Z,15.79
2023-05-16T22:19:50.586Z,16.02
2023-05-16T22:22:17.504Z,16.41
2023-05-16T22:24:44.189Z,16.44
2023-05-16T22:27:10.919Z,16.44
2023-05-16T22:29:41.108Z,16.34
2023-05-16T22:32:08.516Z,16.40
2023-05-16T22:34:35.595Z,16.45
2023-05-16T22:37:02.298Z,16.04
2023-05-16T22:39:29.057Z,16.37
2023-05-16T22:41:55.842Z,16.19
2023-05-16T22:44:22.494Z,16.18
2023-05-16T22:46:49.300Z,16.35
2023-05-16T22:49:16.584Z,16.25
2023-05-16T22:51:43.295Z,15.92
2023-05-16T22:54:10.019Z,16.47
2023-05-16T22:56:36.760Z,16.18
2023-05-16T22:59:03.488Z,16.19
2023-05-16T23:01:30.221Z,16.18
2023-05-16T23:03:56.951Z,16.15
2023-05-16T23:06:23.663Z,15.96
2023-05-16T23:08:50.390Z,15.87
2023-05-16T23:11:17.136Z,16.18
2023-05-16T23:13:43.865Z,15.89
2023-05-16T23:16:10.671Z,15.99
2023-05-16T23:18:37.384Z,15.81
2023-05-16T23:21:04.202Z,16.10
2023-05-16T23:23:30.831Z,15.76
2023-05-16T23:25:57.429Z,15.49
2023-05-16T23:28:24.107Z,15.60
2023-05-16T23:30:51.417Z,15.55
2023-05-16T23:33:18.243Z,15.91
2023-05-16T23:35:45.092Z,15.75
2023-05-16T23:38:11.717Z,15.50
2023-05-16T23:40:38.570Z,15.47
2023-05-16T23:43:05.200Z,15.25
2023-05-16T23:45:31.855Z,15.39
2023-05-16T23:47:58.630Z,15.80
2023-05-16T23:50:25.381Z,15.90
2023-05-16T23:52:52.055Z,15.78
2023-05-16T23:55:20.551Z,15.40
2023-05-16T23:57:47.357Z,15.59
